Time;durP1;ratioP1;P1;durP2;ratioP2;P2;SDS_P1;SDS_P2;PMS_P1;PMS_P2;Temp;Humidity;BMP_temperature;BMP_pressure;BME280_temperature;BME280_humidity;BME280_pressure;Samples;Min_cycle;Max_cycle;Signal;HPM_P1;HPM_P2
2021/05/28 00:02:19;;;;;;;9.30;6.70;;;;;;;13.80;65.39;100877.31;5080917;28;20931;-74
2021/05/28 00:04:46;;;;;;;13.73;7.00;;;;;;;13.86;64.81;100882.94;5080768;28;20460;-73
2021/05/28 00:07:12;;;;;;;19.33;6.80;;;;;;;13.94;64.91;100876.84;5080898;28;20480;-74
2021/05/28 00:09:39;;;;;;;13.10;7.10;;;;;;;14.02;64.72;100879.63;5080408;28;20457;-73
2021/05/28 00:12:07;;;;;;;11.30;7.00;;;;;;;14.05;64.23;100884.72;5080494;28;20479;-74
2021/05/28 00:14:34;;;;;;;13.50;7.33;;;;;;;14.09;64.20;100885.28;5081120;28;20513;-73
2021/05/28 00:17:00;;;;;;;13.53;7.70;;;;;;;14.08;64.13;100880.91;5080629;28;20510;-74
2021/05/28 00:19:27;;;;;;;15.37;7.20;;;;;;;13.96;64.64;100880.25;5085568;28;20475;-73
2021/05/28 00:21:53;;;;;;;14.70;8.10;;;;;;;13.82;65.33;100884.25;5084226;28;20491;-73
2021/05/28 00:24:20;;;;;;;17.10;6.40;;;;;;;13.87;65.00;100892.72;5085087;28;20482;-74
2021/05/28 00:26:46;;;;;;;16.47;9.20;;;;;;;13.83;65.24;100893.97;5084011;28;21004;-73
2021/05/28 00:29:13;;;;;;;13.93;7.00;;;;;;;13.97;64.72;100895.34;5085709;28;20431;-73
2021/05/28 00:31:40;;;;;;;10.40;7.50;;;;;;;13.68;65.41;100893.63;5084213;28;20503;-73
2021/05/28 00:34:06;;;;;;;9.17;7.27;;;;;;;13.48;66.10;100900.00;5085187;28;20478;-73
2021/05/28 00:36:32;;;;;;;12.30;7.30;;;;;;;13.34;66.78;100898.63;5083763;28;20476;-74
2021/05/28 00:38:58;;;;;;;10.73;7.20;;;;;;;13.71;65.58;100898.72;5083847;28;20557;-73
2021/05/28 00:41:24;;;;;;;16.63;8.10;;;;;;;13.51;66.15;100897.03;5083920;28;20499;-73
2021/05/28 00:43:50;;;;;;;10.30;6.93;;;;;;;13.60;65.61;100901.53;5084622;28;20505;-73
2021/05/28 00:46:17;;;;;;;8.80;7.20;;;;;;;13.22;66.76;100910.47;5084078;28;20475;-73
2021/05/28 00:48:46;;;;;;;12.30;6.00;;;;;;;13.69;65.55;100906.03;5085153;28;20925;-73
2021/05/28 00:51:12;;;;;;;12.87;6.70;;;;;;;13.54;65.86;100911.03;5083595;28;20467;-73
2021/05/28 00:53:38;;;;;;;13.63;7.03;;;;;;;13.74;65.13;100909.16;5084647;28;20497;-74
2021/05/28 00:56:05;;;;;;;16.47;7.60;;;;;;;13.45;65.65;100911.88;5084094;28;20519;-73
2021/05/28 00:58:32;;;;;;;15.33;6.93;;;;;;;13.22;66.43;100913.16;5084125;28;20705;-73
2021/05/28 01:00:58;;;;;;;13.87;6.90;;;;;;;13.24;66.18;100916.53;5083329;28;20843;-73
2021/05/28 01:03:25;;;;;;;14.33;7.07;;;;;;;13.36;65.86;100920.78;5084582;28;20444;-74
2021/05/28 01:05:51;;;;;;;12.33;7.00;;;;;;;13.25;66.06;100919.09;5083678;28;20514;-74
2021/05/28 01:08:17;;;;;;;13.43;8.57;;;;;;;13.55;65.28;100928.84;5084155;28;20448;-74
2021/05/28 01:10:43;;;;;;;10.60;7.23;;;;;;;13.61;65.10;100930.13;5082983;28;20533;-73
2021/05/28 01:13:11;;;;;;;17.00;7.23;;;;;;;13.46;65.73;100934.22;5083981;28;20459;-73
2021/05/28 01:15:37;;;;;;;14.57;7.20;;;;;;;13.51;65.27;100932.81;5083176;28;20475;-73
2021/05/28 01:18:04;;;;;;;12.57;7.70;;;;;;;13.62;64.68;100936.34;5084819;28;20435;-74
2021/05/28 01:20:31;;;;;;;15.30;7.23;;;;;;;13.40;65.43;100938.31;5082905;28;20476;-73
2021/05/28 01:22:59;;;;;;;15.27;7.40;;;;;;;13.32;65.84;100932.81;5083428;28;20463;-73
2021/05/28 01:25:26;;;;;;;9.33;7.10;;;;;;;13.29;65.70;100946.50;5083734;28;20487;-74
2021/05/28 01:27:52;;;;;;;12.40;7.40;;;;;;;13.35;65.06;100945.97;5083685;28;20455;-73
2021/05/28 01:30:19;;;;;;;13.47;6.03;;;;;;;13.47;65.17;100949.34;5081878;28;20447;-73
2021/05/28 01:32:46;;;;;;;12.80;7.57;;;;;;;13.51;64.47;100959.66;5083434;28;20451;-74
2021/05/28 01:35:14;;;;;;;12.50;6.87;;;;;;;13.43;64.88;100961.38;5082970;28;20455;-73
2021/05/28 01:37:41;;;;;;;12.67;6.23;;;;;;;13.32;64.94;100962.38;5083554;28;20444;-74
2021/05/28 01:40:09;;;;;;;13.00;7.10;;;;;;;13.16;65.64;100960.22;5081901;28;21025;-74
2021/05/28 01:42:36;;;;;;;11.10;6.53;;;;;;;13.07;65.56;100971.75;5083124;28;20452;-74
2021/05/28 01:45:03;;;;;;;19.10;7.50;;;;;;;13.10;65.40;100966.97;5083147;28;20459;-73
2021/05/28 01:47:29;;;;;;;12.50;6.43;;;;;;;13.21;65.21;100954.41;5083488;28;20468;-73
2021/05/28 01:49:55;;;;;;;15.10;6.50;;;;;;;13.18;65.64;100960.91;5083906;28;20424;-74
2021/05/28 01:52:23;;;;;;;12.37;5.63;;;;;;;13.37;64.56;100954.72;5082847;28;20506;-73
2021/05/28 01:54:49;;;;;;;12.73;6.67;;;;;;;13.20;64.87;100953.56;5082868;28;20476;-73
2021/05/28 01:57:16;;;;;;;13.30;7.20;;;;;;;13.07;65.28;100947.59;5082661;28;21017;-73
2021/05/28 01:59:43;;;;;;;12.17;6.07;;;;;;;13.26;64.63;100952.16;5083129;28;20793;-73
2021/05/28 02:02:10;;;;;;;10.17;5.93;;;;;;;12.86;65.74;100951.25;5082636;28;20479;-73
2021/05/28 02:04:36;;;;;;;14.73;6.40;;;;;;;13.10;64.60;100948.16;5083650;28;20451;-73
2021/05/28 02:07:03;;;;;;;15.53;7.40;;;;;;;13.04;64.97;100961.31;5082748;28;20480;-73
2021/05/28 02:09:30;;;;;;;12.80;6.93;;;;;;;13.02;64.95;100963.28;5083622;28;20428;-73
2021/05/28 02:11:58;;;;;;;15.60;5.80;;;;;;;12.86;65.21;100967.34;5081583;28;20495;-73
2021/05/28 02:14:25;;;;;;;20.37;8.00;;;;;;;13.09;64.51;100959.91;5083172;28;20448;-74
2021/05/28 02:16:51;;;;;;;6.60;5.63;;;;;;;13.03;64.69;100956.94;5082496;28;20484;-73
2021/05/28 02:19:18;;;;;;;11.23;5.97;;;;;;;12.86;64.69;100961.13;5082213;28;20490;-73
2021/05/28 02:21:44;;;;;;;14.00;6.70;;;;;;;12.88;64.60;100965.41;5082284;28;20484;-73
2021/05/28 02:24:12;;;;;;;13.70;5.70;;;;;;;12.85;64.49;100962.13;5082690;28;20925;-74
2021/05/28 02:26:38;;;;;;;11.23;6.90;;;;;;;12.72;64.92;100959.69;5082231;28;20463;-74
2021/05/28 02:29:04;;;;;;;13.03;6.20;;;;;;;12.54;65.15;100963.03;5082882;28;20937;-73
2021/05/28 02:31:32;;;;;;;12.63;7.33;;;;;;;12.41;65.68;100971.31;5081668;28;20478;-73
2021/05/28 02:33:58;;;;;;;14.33;6.17;;;;;;;12.44;65.30;100967.50;5082726;28;20591;-73
2021/05/28 02:36:24;;;;;;;13.83;7.00;;;;;;;12.36;65.63;100967.31;5082438;28;20503;-74
2021/05/28 02:38:50;;;;;;;16.20;7.23;;;;;;;12.31;65.40;100969.56;5080995;28;20443;-73
2021/05/28 02:41:16;;;;;;;15.10;7.50;;;;;;;12.34;65.08;100971.97;5081677;28;20495;-74
2021/05/28 02:43:42;;;;;;;13.33;6.40;;;;;;;12.28;65.09;100970.69;5082135;28;20472;-74
2021/05/28 02:46:09;;;;;;;14.23;6.43;;;;;;;12.26;65.12;100971.81;5081454;28;20507;-74
2021/05/28 02:48:36;;;;;;;13.00;7.07;;;;;;;12.27;65.06;100970.81;5082429;28;20436;-74
2021/05/28 02:51:02;;;;;;;10.47;7.40;;;;;;;12.15;65.43;100980.78;5081776;28;20521;-74
2021/05/28 02:53:33;;;;;;;15.40;7.00;;;;;;;12.23;64.99;100981.81;5082177;28;20521;-73
2021/05/28 02:56:00;;;;;;;20.83;7.13;;;;;;;12.21;64.89;100983.78;5080922;28;20472;-74
2021/05/28 02:58:26;;;;;;;12.87;7.10;;;;;;;12.15;64.60;100983.44;5082271;28;20459;-74
2021/05/28 03:00:52;;;;;;;11.63;6.03;;;;;;;11.98;65.26;100974.22;5080783;28;20599;-74
2021/05/28 03:03:18;;;;;;;11.93;7.00;;;;;;;11.85;65.55;100982.41;5081950;28;20460;-74
2021/05/28 03:05:46;;;;;;;14.73;7.43;;;;;;;11.85;65.51;100982.41;5080938;28;20480;-74
2021/05/28 03:08:12;;;;;;;14.10;7.57;;;;;;;11.74;65.81;100983.31;5082126;28;20452;-73
2021/05/28 03:10:38;;;;;;;15.80;7.50;;;;;;;11.49;66.31;100979.16;5081593;28;20518;-74
2021/05/28 03:13:04;;;;;;;10.57;7.10;;;;;;;11.46;66.93;100988.31;5081710;28;20459;-74
2021/05/28 03:15:31;;;;;;;10.70;7.07;;;;;;;11.57;66.37;100992.78;5081510;28;20539;-73
2021/05/28 03:17:58;;;;;;;13.20;7.47;;;;;;;11.40;66.80;100986.13;5081929;28;20482;-73
2021/05/28 03:20:27;;;;;;;11.30;7.60;;;;;;;11.25;67.32;100982.94;5081142;28;20857;-74
2021/05/28 03:22:54;;;;;;;14.77;7.87;;;;;;;11.17;67.73;100985.38;5081238;28;20496;-73
2021/05/28 03:25:21;;;;;;;17.13;10.10;;;;;;;10.89;68.98;100986.78;5081003;28;20484;-73
2021/05/28 03:27:49;;;;;;;12.30;8.00;;;;;;;10.97;68.75;100991.50;5081535;28;20467;-73
2021/05/28 03:30:16;;;;;;;13.43;7.70;;;;;;;11.05;68.06;100997.94;5071731;28;20451;-73
2021/05/28 03:32:42;;;;;;;12.30;9.00;;;;;;;11.44;67.00;100995.63;5082373;28;20435;-73
2021/05/28 03:35:09;;;;;;;17.37;9.60;;;;;;;11.85;66.25;101002.00;5080925;28;20459;-73
2021/05/28 03:37:35;;;;;;;14.20;8.60;;;;;;;12.58;64.62;101007.34;5081944;28;20903;-73
2021/05/28 03:40:02;;;;;;;12.33;9.00;;;;;;;13.12;62.18;101002.59;5079768;28;21019;-74
2021/05/28 03:42:28;;;;;;;12.43;9.33;;;;;;;13.72;60.70;101007.88;5079843;28;20475;-74
2021/05/28 03:44:55;;;;;;;15.83;9.50;;;;;;;14.33;58.98;101003.09;5081288;28;20487;-74
2021/05/28 03:47:21;;;;;;;11.10;7.40;;;;;;;14.75;56.77;101015.28;5075632;28;20488;-75
2021/05/28 03:49:47;;;;;;;12.23;7.40;;;;;;;15.19;55.78;101007.34;5061631;28;20430;-74
2021/05/28 03:52:14;;;;;;;9.30;5.93;;;;;;;15.50;54.56;101015.09;5043679;28;20469;-74
2021/05/28 03:54:40;;;;;;;9.53;5.67;;;;;;;15.79;53.08;101014.88;5061511;28;20491;-75
2021/05/28 03:57:07;;;;;;;12.20;5.57;;;;;;;15.73;52.76;101012.78;5060632;28;20487;-74
2021/05/28 03:59:34;;;;;;;9.47;4.97;;;;;;;16.15;51.49;101004.84;5061582;28;20496;-74
2021/05/28 04:02:00;;;;;;;9.23;5.20;;;;;;;16.69;50.40;101011.91;5077749;28;20530;-74
2021/05/28 04:04:27;;;;;;;8.87;4.90;;;;;;;16.68;50.09;101004.81;5078681;28;20452;-74
2021/05/28 04:06:53;;;;;;;8.47;5.00;;;;;;;16.37;50.22;101010.75;5079630;28;20545;-74
2021/05/28 04:09:19;;;;;;;10.20;5.30;;;;;;;15.48;52.83;101000.91;5063695;28;20468;-74
2021/05/28 04:11:45;;;;;;;10.43;6.10;;;;;;;14.59;55.19;101019.44;5065920;28;20926;-74
2021/05/28 04:14:14;;;;;;;9.80;4.87;;;;;;;14.08;57.13;101024.25;5061842;28;20461;-74
2021/05/28 04:16:40;;;;;;;8.17;5.40;;;;;;;13.71;58.78;101021.44;5060481;28;20469;-74
2021/05/28 04:19:06;;;;;;;11.17;5.90;;;;;;;13.31;60.23;101022.41;5061714;28;20480;-73
2021/05/28 04:21:33;;;;;;;9.60;7.33;;;;;;;12.88;61.64;101034.31;5078258;28;20500;-74
2021/05/28 04:24:00;;;;;;;13.07;7.87;;;;;;;12.83;62.67;101032.03;5062598;28;20487;-73
2021/05/28 04:26:26;;;;;;;15.40;8.70;;;;;;;12.89;62.70;101036.00;5078968;28;20640;-74
2021/05/28 04:28:52;;;;;;;13.73;9.63;;;;;;;12.94;62.65;101034.59;5081256;28;20492;-74
2021/05/28 04:31:19;;;;;;;18.20;9.90;;;;;;;12.55;64.19;101033.59;5079217;28;20472;-74
2021/05/28 04:33:45;;;;;;;18.23;11.00;;;;;;;12.55;63.96;101036.28;5080729;28;20819;-74
2021/05/28 04:36:12;;;;;;;18.80;11.73;;;;;;;12.15;65.56;101040.63;5076182;28;20521;-74
2021/05/28 04:38:38;;;;;;;18.70;12.43;;;;;;;12.59;64.53;101046.63;5072117;28;20459;-75
2021/05/28 04:41:04;;;;;;;21.60;13.27;;;;;;;12.54;63.87;101043.50;5077117;28;20530;-74
2021/05/28 04:43:30;;;;;;;19.50;12.73;;;;;;;12.66;64.31;101043.41;5066869;28;20511;-75
2021/05/28 04:45:57;;;;;;;26.00;12.00;;;;;;;12.46;64.54;101051.34;5076956;28;20500;-75
2021/05/28 04:48:24;;;;;;;15.80;12.50;;;;;;;12.60;64.64;101055.50;5079739;28;20456;-75
2021/05/28 04:50:50;;;;;;;17.10;12.77;;;;;;;12.76;64.27;101057.72;5078541;28;20514;-75
2021/05/28 04:53:16;;;;;;;19.00;12.93;;;;;;;12.75;63.99;101056.00;5078047;28;20463;-75
2021/05/28 04:55:43;;;;;;;20.13;12.40;;;;;;;12.54;64.68;101064.94;5079357;28;20484;-74
2021/05/28 04:58:09;;;;;;;20.50;12.10;;;;;;;12.37;65.29;101063.72;5080107;28;20535;-74
2021/05/28 05:00:35;;;;;;;14.93;12.13;;;;;;;12.31;65.10;101075.00;5077716;28;20467;-74
2021/05/28 05:03:02;;;;;;;15.00;12.60;;;;;;;11.95;66.13;101077.13;5079654;28;20456;-72
2021/05/28 05:05:29;;;;;;;17.70;12.00;;;;;;;12.36;64.47;101083.50;5082675;28;20508;-74
2021/05/28 05:07:56;;;;;;;15.40;11.07;;;;;;;11.97;65.36;101083.22;5082224;28;20463;-73
2021/05/28 05:10:22;;;;;;;14.37;11.13;;;;;;;12.38;64.49;101092.25;5082553;28;20427;-73
2021/05/28 05:12:48;;;;;;;18.20;12.17;;;;;;;12.27;64.64;101096.84;5082907;28;20450;-73
2021/05/28 05:15:14;;;;;;;19.37;11.33;;;;;;;12.41;64.12;101094.69;5081343;28;20443;-73
2021/05/28 05:17:40;;;;;;;21.50;12.90;;;;;;;12.72;63.17;101092.00;5083264;28;20803;-73
2021/05/28 05:20:09;;;;;;;19.73;12.60;;;;;;;12.77;63.42;101092.44;5082770;28;20488;-74
2021/05/28 05:22:36;;;;;;;17.40;11.97;;;;;;;13.26;61.57;101098.03;5081357;28;20926;-72
2021/05/28 05:25:03;;;;;;;16.10;10.67;;;;;;;13.41;61.18;101105.72;5082078;28;20475;-73
2021/05/28 05:27:29;;;;;;;17.30;10.60;;;;;;;12.92;62.29;101110.91;5082554;28;20482;-73
2021/05/28 05:29:55;;;;;;;12.60;10.70;;;;;;;12.93;62.02;101115.25;5082285;28;20469;-73
2021/05/28 05:32:21;;;;;;;17.60;11.03;;;;;;;12.77;62.70;101126.50;5074238;28;20479;-73
2021/05/28 05:34:47;;;;;;;12.03;9.70;;;;;;;12.91;61.77;101126.13;5081509;28;20444;-74
2021/05/28 05:37:14;;;;;;;15.80;10.37;;;;;;;12.81;61.58;101122.53;5079716;28;20482;-73
2021/05/28 05:39:41;;;;;;;12.63;9.83;;;;;;;13.13;60.65;101125.09;5082480;28;20511;-73
2021/05/28 05:42:08;;;;;;;12.83;9.60;;;;;;;12.95;61.32;101122.22;5082166;28;20883;-73
2021/05/28 05:44:34;;;;;;;14.90;9.80;;;;;;;13.05;60.90;101130.28;5085075;28;20541;-73
2021/05/28 05:47:00;;;;;;;13.90;9.53;;;;;;;13.02;60.94;101135.06;5084182;28;20472;-74
2021/05/28 05:49:26;;;;;;;10.60;9.47;;;;;;;13.03;59.93;101129.56;5081811;28;20495;-74
2021/05/28 05:51:53;;;;;;;10.50;8.90;;;;;;;13.49;59.56;101138.97;5081008;28;20475;-73
2021/05/28 05:54:19;;;;;;;11.60;9.10;;;;;;;13.68;58.25;101132.78;5077265;28;20981;-73
2021/05/28 05:56:46;;;;;;;10.30;9.20;;;;;;;14.03;57.67;101133.22;5078365;28;20723;-74
2021/05/28 05:59:12;;;;;;;12.80;9.37;;;;;;;13.60;58.71;101143.34;5081238;28;20452;-73
2021/05/28 06:01:38;;;;;;;17.50;10.03;;;;;;;13.55;58.45;101140.22;5080774;28;20510;-74
2021/05/28 06:04:05;;;;;;;10.60;9.53;;;;;;;14.46;56.19;101131.91;5079308;28;20455;-75
2021/05/28 06:06:31;;;;;;;14.17;9.03;;;;;;;15.47;53.83;101136.66;5073049;28;20495;-74
2021/05/28 06:08:58;;;;;;;9.07;8.27;;;;;;;17.70;47.73;101130.81;5080915;28;20440;-72
2021/05/28 06:11:24;;;;;;;9.03;8.03;;;;;;;17.48;47.23;101140.41;5080728;28;20475;-72
2021/05/28 06:13:51;;;;;;;10.60;7.40;;;;;;;18.03;46.22;101127.34;5075344;28;20544;-70
2021/05/28 06:16:17;;;;;;;7.60;6.80;;;;;;;18.34;45.92;101140.22;5060849;28;20499;-73
2021/05/28 06:18:43;;;;;;;12.03;7.37;;;;;;;17.75;47.61;101124.09;5077127;28;20706;-72
2021/05/28 06:21:10;;;;;;;9.47;7.87;;;;;;;18.74;45.90;101130.34;5080990;28;20479;-75
2021/05/28 06:23:36;;;;;;;9.10;7.90;;;;;;;18.02;46.43;101133.78;5077385;28;20456;-73
2021/05/28 06:26:02;;;;;;;9.50;7.30;;;;;;;17.09;48.78;101143.63;5079600;28;20786;-75
2021/05/28 06:28:28;;;;;;;12.63;8.00;;;;;;;16.87;49.02;101150.44;5081998;28;20448;-72
2021/05/28 06:30:56;;;;;;;10.87;7.23;;;;;;;15.85;51.83;101148.22;5075501;28;21023;-71
2021/05/28 06:33:22;;;;;;;9.50;7.60;;;;;;;17.11;47.72;101152.41;5083669;28;20995;-70
2021/05/28 06:35:49;;;;;;;10.70;7.00;;;;;;;17.86;47.03;101153.53;5080873;28;20522;-76
2021/05/28 06:38:15;;;;;;;10.60;8.40;;;;;;;16.69;49.16;101157.72;5085207;28;20452;-70
2021/05/28 06:40:41;;;;;;;8.80;7.70;;;;;;;15.89;50.79;101160.41;5077819;28;20494;-73
2021/05/28 06:43:07;;;;;;;11.17;8.00;;;;;;;16.67;50.03;101162.44;5080951;28;20476;-73
2021/05/28 06:45:35;;;;;;;9.47;8.17;;;;;;;15.98;51.17;101163.00;5080138;28;20839;-76
2021/05/28 06:48:02;;;;;;;11.13;7.83;;;;;;;15.73;52.76;101177.22;5078513;28;20897;-71
2021/05/28 06:50:31;;;;;;;10.30;7.90;;;;;;;14.96;54.73;101172.03;5093115;28;20467;-76
2021/05/28 06:52:58;;;;;;;10.83;9.47;;;;;;;15.47;52.79;101179.75;5091537;28;20847;-76
2021/05/28 06:55:25;;;;;;;10.83;8.10;;;;;;;15.74;51.99;101178.91;5080296;28;20505;-78
2021/05/28 06:57:51;;;;;;;9.10;7.90;;;;;;;15.42;52.37;101164.91;5080218;28;20482;-77
2021/05/28 07:00:18;;;;;;;9.30;7.80;;;;;;;15.26;52.97;101167.41;5080049;28;20503;-75
2021/05/28 07:02:45;;;;;;;13.87;9.60;;;;;;;15.33;53.13;101165.81;5081208;28;20455;-71
2021/05/28 07:05:12;;;;;;;9.90;8.03;;;;;;;16.37;51.31;101172.66;5079435;28;20483;-78
2021/05/28 07:07:40;;;;;;;9.03;8.13;;;;;;;17.01;49.53;101172.44;5078752;28;20444;-68
2021/05/28 07:10:07;;;;;;;10.60;7.63;;;;;;;19.09;44.54;101180.59;5079119;28;20456;-64
2021/05/28 07:12:34;;;;;;;7.93;7.13;;;;;;;22.17;37.76;101181.94;5078917;28;20866;-66
2021/05/28 07:15:00;;;;;;;8.40;6.73;;;;;;;23.93;32.75;101169.25;5080303;28;20440;-69
2021/05/28 07:17:26;;;;;;;9.60;6.03;;;;;;;26.90;29.28;101173.28;5079207;28;20458;-69
2021/05/28 07:19:53;;;;;;;8.10;5.60;;;;;;;26.78;28.93;101174.00;5079247;28;20490;-69
2021/05/28 07:22:20;;;;;;;10.10;6.10;;;;;;;21.63;36.67;101191.38;5078004;28;20483;-70
2021/05/28 07:24:46;;;;;;;9.20;6.67;;;;;;;19.52;40.93;101182.97;5079663;28;20436;-70
2021/05/28 07:27:13;;;;;;;7.90;6.90;;;;;;;19.25;42.09;101179.72;5078873;28;20521;-67
2021/05/28 07:29:39;;;;;;;6.70;6.00;;;;;;;22.48;36.98;101177.19;5080773;28;20486;-65
2021/05/28 07:32:05;;;;;;;7.70;6.17;;;;;;;20.84;37.20;101172.91;5078743;28;20459;-70
2021/05/28 07:34:32;;;;;;;6.57;5.87;;;;;;;23.86;32.08;101180.97;5078221;28;20809;-70
2021/05/28 07:37:01;;;;;;;7.10;5.50;;;;;;;24.60;31.49;101181.13;5079550;28;20499;-72
2021/05/28 07:39:52;;;;;;;11.07;6.40;;;;;;;26.83;28.98;101168.69;5078799;28;20491;-69
2021/05/28 07:42:18;;;;;;;7.03;6.00;;;;;;;26.93;27.61;101181.88;5076782;28;20472;-68
2021/05/28 07:44:45;;;;;;;7.23;5.33;;;;;;;26.44;29.45;101180.81;5078995;28;20463;-69
2021/05/28 07:47:11;;;;;;;6.07;5.00;;;;;;;25.05;30.07;101186.75;5079305;28;20503;-72
2021/05/28 07:49:39;;;;;;;6.03;4.70;;;;;;;26.30;28.85;101183.69;5078982;28;20436;-68
2021/05/28 07:52:05;;;;;;;6.00;4.63;;;;;;;27.20;27.42;101176.09;5079388;28;20471;-78
2021/05/28 07:54:32;;;;;;;6.23;5.00;;;;;;;27.58;26.92;101181.38;5079378;28;20456;-69
2021/05/28 07:56:58;;;;;;;6.13;4.30;;;;;;;27.87;26.47;101178.88;5078232;28;20483;-74
2021/05/28 07:59:25;;;;;;;5.43;4.70;;;;;;;27.50;26.97;101180.84;5078993;28;20460;-72
2021/05/28 08:01:51;;;;;;;6.40;5.00;;;;;;;28.19;27.00;101181.38;5079374;28;20480;-73
2021/05/28 08:04:17;;;;;;;9.03;5.00;;;;;;;24.12;31.62;101189.47;5078485;28;20451;-69
2021/05/28 08:06:43;;;;;;;7.47;4.73;;;;;;;25.42;30.45;101178.03;5078719;28;20483;-67
2021/05/28 08:09:09;;;;;;;5.20;4.73;;;;;;;26.64;28.40;101181.53;5079230;28;20478;-69
2021/05/28 08:11:36;;;;;;;6.93;4.10;;;;;;;25.53;29.87;101182.81;5077241;28;20471;-70
2021/05/28 08:14:04;;;;;;;5.83;4.03;;;;;;;25.85;29.40;101182.88;5079777;28;20456;-72
2021/05/28 08:16:30;;;;;;;6.37;4.93;;;;;;;27.51;28.15;101182.53;5079152;28;20479;-67
2021/05/28 08:19:00;;;;;;;6.30;5.30;;;;;;;26.65;28.47;101176.91;5078823;28;20695;-69
2021/05/28 08:21:30;;;;;;;5.57;4.97;;;;;;;26.32;29.69;101177.97;5078834;28;20480;-65
2021/05/28 08:23:56;;;;;;;6.00;5.37;;;;;;;25.32;30.16;101175.75;5077343;28;20460;-69
2021/05/28 08:26:22;;;;;;;7.10;5.70;;;;;;;25.03;31.12;101174.31;5078009;28;20478;-65
2021/05/28 08:28:49;;;;;;;6.20;5.50;;;;;;;25.18;32.54;101177.66;5078178;28;20991;-67
2021/05/28 08:31:16;;;;;;;8.07;6.07;;;;;;;25.18;32.94;101174.91;5077245;28;20514;-69
2021/05/28 08:33:44;;;;;;;8.87;7.97;;;;;;;23.78;33.20;101177.56;5076929;28;20481;-73
2021/05/28 08:36:10;;;;;;;8.23;7.20;;;;;;;23.10;36.66;101187.31;5078879;28;21054;-69
2021/05/28 08:38:36;;;;;;;7.63;6.90;;;;;;;23.50;34.31;101192.16;5078269;28;20492;-67
2021/05/28 08:41:03;;;;;;;8.23;7.30;;;;;;;25.89;30.71;101184.97;5080087;28;20511;-74
2021/05/28 08:43:29;;;;;;;8.03;7.23;;;;;;;27.04;29.00;101189.38;5083740;28;20499;-72
2021/05/28 08:46:00;;;;;;;7.60;6.83;;;;;;;26.18;28.97;101192.81;5082017;28;20480;-71
2021/05/28 08:48:27;;;;;;;8.60;6.87;;;;;;;26.30;28.40;101191.06;5082474;28;20442;-71
2021/05/28 08:50:53;;;;;;;7.97;7.30;;;;;;;26.41;28.62;101186.75;5082613;28;21068;-68
2021/05/28 08:53:19;;;;;;;8.57;7.73;;;;;;;25.68;30.15;101185.28;5082937;28;20870;-67
2021/05/28 08:55:46;;;;;;;6.20;5.60;;;;;;;26.43;27.83;101190.13;5081390;28;21052;-69
2021/05/28 08:58:14;;;;;;;6.97;6.27;;;;;;;27.86;27.24;101190.09;5082778;28;20539;-66
2021/05/28 09:00:42;;;;;;;7.40;6.73;;;;;;;26.11;28.44;101184.66;5082209;28;20471;-67
2021/05/28 09:03:20;;;;;;;10.00;9.07;;;;;;;25.27;31.28;101178.28;5085051;28;20443;-70
2021/05/28 09:05:46;;;;;;;8.17;7.37;;;;;;;26.75;29.03;101184.59;5078024;28;20501;-76
2021/05/28 09:08:13;;;;;;;9.87;8.97;;;;;;;27.14;28.56;101180.59;5082814;28;21042;-68
2021/05/28 09:10:40;;;;;;;8.97;7.80;;;;;;;27.26;27.19;101177.13;5082022;28;20471;-72
2021/05/28 09:13:11;;;;;;;9.30;7.93;;;;;;;27.06;27.81;101180.91;5083754;28;20455;-66
2021/05/28 09:15:38;;;;;;;10.93;10.03;;;;;;;25.08;29.78;101164.41;5081986;28;20531;-69
2021/05/28 09:18:05;;;;;;;9.60;8.70;;;;;;;26.16;30.16;101173.03;5082204;28;20463;-71
2021/05/28 09:20:33;;;;;;;10.00;9.00;;;;;;;26.05;30.21;101175.41;5082087;28;20470;-72
2021/05/28 09:23:16;;;;;;;8.67;7.87;;;;;;;26.73;27.91;101165.63;5081803;28;20447;-69
2021/05/28 09:25:53;;;;;;;8.77;7.40;;;;;;;27.31;27.46;101177.28;5076484;28;20459;-67
2021/05/28 09:28:19;;;;;;;10.43;7.77;;;;;;;26.03;29.50;101173.97;5074088;28;20474;-66
2021/05/28 09:30:54;;;;;;;8.37;7.60;;;;;;;27.20;28.28;101162.38;5081625;28;20494;-69
2021/05/28 09:33:20;;;;;;;8.07;7.33;;;;;;;27.85;27.75;101178.28;5081343;28;20457;-70
2021/05/28 09:35:49;;;;;;;7.97;7.27;;;;;;;27.70;27.32;101175.09;5081656;28;20490;-69
2021/05/28 09:38:20;;;;;;;9.13;8.33;;;;;;;28.23;26.74;101179.00;5077795;28;20459;-69
2021/05/28 09:40:47;;;;;;;7.90;6.97;;;;;;;27.51;28.06;101179.78;5079007;28;20483;-68
2021/05/28 09:43:15;;;;;;;7.90;6.77;;;;;;;27.22;27.74;101165.72;5081518;28;20480;-68
2021/05/28 09:45:41;;;;;;;7.80;6.93;;;;;;;26.62;28.86;101169.09;5081857;28;20463;-69
2021/05/28 09:48:22;;;;;;;7.90;6.30;;;;;;;27.36;27.43;101171.94;5081539;28;20448;-75
2021/05/28 09:50:51;;;;;;;6.23;5.43;;;;;;;27.70;27.51;101173.19;5080318;28;20475;-75
2021/05/28 09:53:32;;;;;;;6.87;6.27;;;;;;;26.52;28.75;101163.25;5081081;28;20510;-73
2021/05/28 09:56:00;;;;;;;6.40;5.80;;;;;;;27.46;26.09;101176.91;5074887;28;20483;-76
2021/05/28 09:59:00;;;;;;;6.03;5.50;;;;;;;26.48;30.35;101171.94;5083451;28;20460;-76
2021/05/28 10:01:26;;;;;;;9.67;5.50;;;;;;;26.98;29.58;101182.06;5081172;28;20515;-70
2021/05/28 10:04:00;;;;;;;7.13;6.43;;;;;;;26.08;31.24;101177.72;5081410;28;20474;-68
2021/05/28 10:06:28;;;;;;;6.57;5.67;;;;;;;26.64;29.29;101180.69;5081507;28;20529;-69
2021/05/28 10:08:57;;;;;;;6.03;5.53;;;;;;;26.80;29.05;101180.09;5080732;28;20467;-72
2021/05/28 10:11:25;;;;;;;5.93;5.13;;;;;;;27.68;28.26;101177.25;5079290;28;20513;-68
2021/05/28 10:13:51;;;;;;;6.40;5.80;;;;;;;27.52;29.18;101176.81;5081472;28;20459;-68
2021/05/28 10:16:17;;;;;;;5.10;4.60;;;;;;;25.44;29.68;101160.31;5079009;28;20964;-66
2021/05/28 10:18:44;;;;;;;6.60;5.30;;;;;;;25.65;30.36;101166.56;5081437;28;20435;-68
2021/05/28 10:21:10;;;;;;;7.00;5.90;;;;;;;26.04;30.56;101167.41;5080369;28;20491;-68
2021/05/28 10:23:37;;;;;;;6.40;5.07;;;;;;;24.99;32.34;101161.06;5080442;28;21063;-68
2021/05/28 10:26:04;;;;;;;6.90;6.30;;;;;;;25.04;33.97;101157.69;5080864;28;20486;-71
2021/05/28 10:28:32;;;;;;;8.70;6.23;;;;;;;25.75;31.25;101161.44;5081732;28;20510;-72
2021/05/28 10:30:59;;;;;;;5.17;4.67;;;;;;;26.91;30.58;101162.06;5078706;28;20482;-70
2021/05/28 10:33:26;;;;;;;3.97;3.63;;;;;;;26.87;29.30;101158.09;5081301;28;20452;-66
2021/05/28 10:35:54;;;;;;;4.90;3.40;;;;;;;26.08;28.40;101161.25;5080744;28;20480;-68
2021/05/28 10:38:40;;;;;;;4.47;3.57;;;;;;;26.30;28.66;101167.22;5078258;28;20467;-70
2021/05/28 10:41:30;;;;;;;6.47;4.30;;;;;;;26.16;28.82;101157.44;5062024;28;20510;-70
2021/05/28 10:44:02;;;;;;;5.27;4.10;;;;;;;24.90;31.13;101161.53;5079187;28;20501;-67
2021/05/28 10:46:29;;;;;;;3.53;3.23;;;;;;;24.89;31.38;101162.56;5079061;28;20553;-72
2021/05/28 10:49:15;;;;;;;3.60;3.00;;;;;;;26.07;30.37;101156.00;5081851;28;20439;-74
2021/05/28 10:52:16;;;;;;;4.40;3.30;;;;;;;25.97;31.02;101156.50;5079816;28;20541;-70
2021/05/28 10:54:47;;;;;;;4.03;3.30;;;;;;;24.10;32.50;101156.88;4991412;28;20473;-69
2021/05/28 10:57:22;;;;;;;5.40;3.20;;;;;;;22.33;35.43;101150.03;4997812;28;20480;-68
2021/05/28 10:59:49;;;;;;;5.20;3.70;;;;;;;23.16;33.42;101152.09;4999085;28;20486;-68
2021/05/28 11:02:16;;;;;;;5.73;3.33;;;;;;;23.90;32.93;101153.25;4995967;28;20489;-69
2021/05/28 11:05:00;;;;;;;3.80;3.40;;;;;;;25.04;31.15;101144.00;4997631;28;20463;-67
2021/05/28 11:07:34;;;;;;;4.57;3.27;;;;;;;25.53;30.83;101145.31;4991613;28;20536;-70
2021/05/28 11:10:25;;;;;;;3.77;3.20;;;;;;;25.56;29.88;101144.88;4997850;28;21017;-71
2021/05/28 11:12:52;;;;;;;3.00;2.70;;;;;;;25.75;30.64;101140.38;4998126;28;20506;-75
2021/05/28 11:15:23;;;;;;;3.87;3.30;;;;;;;25.89;30.35;101140.28;4997403;28;20447;-71
2021/05/28 11:17:58;;;;;;;4.23;3.10;;;;;;;24.58;32.28;101137.59;4999349;28;20471;-67
2021/05/28 11:20:31;;;;;;;3.97;2.70;;;;;;;24.55;32.94;101143.47;4998257;28;20467;-74
2021/05/28 11:22:58;;;;;;;3.37;2.47;;;;;;;25.36;30.89;101138.66;4996371;28;20490;-73